CheckWX is a tool to help pilots better visualize weather data.  It is not intended as a substitute for an official pre-flight weather briefing.

11:15:14 UTC

EGKB METAR
London Biggin Hill Airport
London, United Kingdom
Current

25 mins ago

EGKB 151050Z 25005KT 200V310 9999 VCSH SCT015 SCT035 14/12 Q1005
Observed
Oct-15 @ 10:50 UTC
Wind
  • 250° at 5 KTS
Visibility
10,000+ meters
Flight Rules
VFR
Cloud Levels
  • Scattered at 1,500' AGL
  • Scattered at 3,500' AGL
Temperature
14°C / 57°F
Dewpoint
12°C / 54°F
Humidity
88%
Altimeter
29.68" Hg
Pressure
1004.92 hPa
Previous

55 mins ago

EGKB 151020Z VRB03KT 9999 SCT010 SCT045 13/12 Q1004
Observed
Oct-15 @ 10:20 UTC
Wind
  • Variable at 3 KTS
Visibility
10,000+ meters
Flight Rules
VFR
Cloud Levels
  • Scattered at 1,000' AGL
  • Scattered at 4,500' AGL
Temperature
13°C / 55°F
Dewpoint
12°C / 54°F
Humidity
94%
Altimeter
29.65" Hg
Pressure
1003.92 hPa
Previous

1 hour ago

EGKB 150950Z VRB03KT 9999 FEW004 BKN036 13/12 Q1004
Observed
Oct-15 @ 09:50 UTC
Wind
  • Variable at 3 KTS
Visibility
10,000+ meters
Flight Rules
VFR
Cloud Levels
  • Few at 400' AGL
  • Broken at 3,600' AGL
Temperature
13°C / 55°F
Dewpoint
12°C / 54°F
Humidity
94%
Altimeter
29.65" Hg
Pressure
1003.92 hPa